Time;durP1;ratioP1;P1;durP2;ratioP2;P2;SDS_P1;SDS_P2;PMS_P1;PMS_P2;Temp;Humidity;BMP_temperature;BMP_pressure;BME280_temperature;BME280_humidity;BME280_pressure;Samples;Min_cycle;Max_cycle;Signal;HPM_P1;HPM_P2
2023/09/12 00:00:42;;;;;;;9.60;4.10;;;;;;;18.52;63.07;95016.63;5072795;28;20480;-78
2023/09/12 00:03:09;;;;;;;5.17;4.00;;;;;;;18.45;63.54;95007.66;5072951;28;20445;-78
2023/09/12 00:05:36;;;;;;;6.20;3.60;;;;;;;18.41;64.04;95011.69;5073277;28;20437;-78
2023/09/12 00:08:05;;;;;;;6.40;3.67;;;;;;;18.27;65.16;95002.63;5073312;28;20447;-78
2023/09/12 00:10:32;;;;;;;5.83;3.80;;;;;;;18.24;65.61;95006.47;5054199;28;20433;-78
2023/09/12 00:13:00;;;;;;;8.13;4.83;;;;;;;18.10;66.43;95011.66;5072799;28;20531;-78
2023/09/12 00:15:27;;;;;;;6.03;3.47;;;;;;;18.00;66.86;95003.94;5072792;28;20517;-78
2023/09/12 00:17:54;;;;;;;5.70;3.90;;;;;;;18.02;66.98;95006.41;5072530;28;20441;-78
2023/09/12 00:20:20;;;;;;;5.07;4.57;;;;;;;18.00;67.28;95011.88;5072584;28;20489;-78
2023/09/12 00:22:47;;;;;;;5.00;4.60;;;;;;;17.90;67.99;95009.41;5072703;28;20453;-78
2023/09/12 00:25:16;;;;;;;6.43;4.20;;;;;;;17.83;68.27;95012.94;5072671;28;20801;-78
2023/09/12 00:27:42;;;;;;;6.93;3.80;;;;;;;17.73;68.74;95013.16;5072760;28;20440;-78
2023/09/12 00:30:10;;;;;;;4.50;3.63;;;;;;;17.65;69.25;95008.66;5072736;28;20440;-78
2023/09/12 00:32:37;;;;;;;6.03;4.60;;;;;;;17.66;69.70;95012.16;5053988;28;20497;-78
2023/09/12 00:35:04;;;;;;;6.97;4.20;;;;;;;17.52;69.63;95007.53;5072455;28;20452;-78
2023/09/12 00:37:31;;;;;;;5.17;3.73;;;;;;;17.52;69.82;95020.78;5072564;28;20526;-79
2023/09/12 00:40:03;;;;;;;5.53;4.50;;;;;;;17.51;69.89;95025.28;5072492;28;20499;-78
2023/09/12 00:42:32;;;;;;;6.23;3.83;;;;;;;17.36;70.60;95018.19;5072739;28;20457;-78
2023/09/12 00:44:58;;;;;;;5.03;4.63;;;;;;;17.21;71.56;95016.19;5021178;28;20444;-78
2023/09/12 00:47:26;;;;;;;4.87;4.37;;;;;;;17.10;71.04;95013.91;5072390;28;20451;-78
2023/09/12 00:49:56;;;;;;;4.33;3.53;;;;;;;17.12;71.27;95014.56;5072299;28;20447;-78
2023/09/12 00:52:25;;;;;;;8.13;4.50;;;;;;;17.03;70.93;95024.31;5071759;28;20946;-78
2023/09/12 00:54:52;;;;;;;4.40;3.80;;;;;;;17.07;70.55;95024.03;5072420;28;20445;-78
2023/09/12 00:57:19;;;;;;;6.80;4.60;;;;;;;17.06;70.92;95023.19;5072258;28;20451;-78
2023/09/12 00:59:48;;;;;;;4.73;4.30;;;;;;;17.01;70.93;95030.78;5072382;28;20475;-78
2023/09/12 01:02:15;;;;;;;4.07;3.70;;;;;;;17.03;70.53;95024.31;5072393;28;20454;-78
2023/09/12 01:04:43;;;;;;;4.90;4.20;;;;;;;17.08;69.92;95029.16;5089718;28;20497;-78
2023/09/12 01:07:10;;;;;;;6.50;4.50;;;;;;;17.08;70.06;95037.09;5092374;28;20444;-78
2023/09/12 01:09:36;;;;;;;5.10;4.30;;;;;;;17.07;69.43;95031.97;5092726;28;20466;-79
2023/09/12 01:12:04;;;;;;;4.70;4.23;;;;;;;17.04;69.75;95035.75;5092415;28;20458;-78
2023/09/12 01:14:31;;;;;;;5.17;4.57;;;;;;;17.06;69.13;95038.25;5092389;28;20439;-78
2023/09/12 01:17:00;;;;;;;5.20;4.53;;;;;;;17.10;68.67;95035.13;5092210;28;20446;-78
2023/09/12 01:19:27;;;;;;;5.00;3.93;;;;;;;17.15;68.66;95038.09;5092186;28;20447;-79
2023/09/12 01:22:28;;;;;;;4.83;4.00;;;;;;;16.87;69.38;95040.25;5092090;28;20479;-79
2023/09/12 01:25:23;;;;;;;10.70;4.80;;;;;;;16.61;71.48;95034.22;5091868;28;20447;-79
2023/09/12 01:27:53;;;;;;;4.50;3.90;;;;;;;16.68;71.38;95040.53;5030576;28;20446;-78
2023/09/12 01:30:23;;;;;;;5.33;3.40;;;;;;;16.78;71.00;95051.00;5033199;28;20457;-79
2023/09/12 01:32:50;;;;;;;6.57;4.63;;;;;;;16.86;70.81;95049.19;5033049;28;20552;-78
2023/09/12 01:35:17;;;;;;;5.00;4.50;;;;;;;16.92;70.49;95053.00;5033304;28;20446;-78
2023/09/12 01:37:44;;;;;;;4.13;3.73;;;;;;;16.97;70.08;95046.19;5032933;28;20456;-78
2023/09/12 01:40:11;;;;;;;7.10;3.63;;;;;;;17.01;69.27;95046.69;5033041;28;20450;-79
2023/09/12 01:42:42;;;;;;;9.97;4.40;;;;;;;17.06;69.02;95054.16;5033019;28;20936;-78
2023/09/12 01:45:15;;;;;;;4.93;3.40;;;;;;;17.05;68.24;95040.06;5033119;28;20809;-79
2023/09/12 01:47:43;;;;;;;5.00;4.40;;;;;;;17.06;68.54;95051.50;5000636;28;20451;-78
2023/09/12 01:50:13;;;;;;;4.57;3.90;;;;;;;17.04;69.57;95051.66;5032760;28;20939;-78
2023/09/12 01:52:41;;;;;;;8.00;4.13;;;;;;;16.99;68.84;95053.97;5032622;28;20474;-79
2023/09/12 01:55:10;;;;;;;6.17;3.90;;;;;;;16.93;69.23;95052.00;5032905;28;20854;-78
2023/09/12 01:57:37;;;;;;;7.17;4.97;;;;;;;16.88;68.48;95052.50;5032578;28;20503;-79
2023/09/12 02:00:05;;;;;;;4.30;3.90;;;;;;;16.85;68.59;95052.00;5032941;28;20449;-79
2023/09/12 02:02:33;;;;;;;4.23;3.83;;;;;;;16.80;68.69;95049.03;5032560;28;20940;-78
2023/09/12 02:05:09;;;;;;;6.20;4.43;;;;;;;16.77;69.00;95052.84;5060088;28;20443;-78
2023/09/12 02:07:39;;;;;;;5.37;3.70;;;;;;;16.71;68.97;95046.34;5094932;28;20439;-78
2023/09/12 02:10:06;;;;;;;4.30;3.90;;;;;;;16.77;68.29;95051.97;5094768;28;20442;-78
2023/09/12 02:12:33;;;;;;;6.13;3.83;;;;;;;16.81;68.52;95059.47;5059303;28;20450;-78
2023/09/12 02:15:00;;;;;;;5.03;4.20;;;;;;;16.81;68.44;95053.34;5094933;28;20446;-78
2023/09/12 02:17:28;;;;;;;5.23;4.27;;;;;;;16.80;68.67;95056.97;5094890;28;20928;-78
2023/09/12 02:19:56;;;;;;;4.90;3.97;;;;;;;16.78;68.66;95066.91;5094832;28;20443;-79
2023/09/12 02:22:23;;;;;;;5.40;4.00;;;;;;;16.74;68.69;95058.44;5094488;28;20965;-78
2023/09/12 02:24:50;;;;;;;5.50;4.60;;;;;;;16.71;69.14;95062.25;5094762;28;20442;-78
2023/09/12 02:27:20;;;;;;;13.53;4.70;;;;;;;16.75;69.11;95062.75;5094984;28;20441;-79
2023/09/12 02:29:47;;;;;;;16.87;4.57;;;;;;;16.77;69.19;95062.56;5094508;28;20444;-78
2023/09/12 02:32:14;;;;;;;6.97;4.37;;;;;;;16.75;69.61;95062.75;5094680;28;20802;-78
2023/09/12 02:34:41;;;;;;;6.03;4.23;;;;;;;16.79;69.11;95064.09;5042688;28;20529;-79
2023/09/12 02:37:09;;;;;;;6.20;3.77;;;;;;;16.77;69.22;95059.94;5094815;28;20450;-79
2023/09/12 02:39:36;;;;;;;6.07;4.53;;;;;;;16.76;68.56;95064.41;5093902;28;20439;-79
2023/09/12 02:42:03;;;;;;;5.30;4.03;;;;;;;16.74;68.76;95063.72;5094446;28;20487;-78
2023/09/12 02:44:29;;;;;;;9.23;4.07;;;;;;;16.77;68.61;95065.22;5094779;28;20465;-78
2023/09/12 02:46:56;;;;;;;5.23;4.07;;;;;;;16.70;68.62;95065.06;5094332;28;20444;-78
2023/09/12 02:49:23;;;;;;;5.57;3.57;;;;;;;16.68;69.13;95065.22;5094111;28;20776;-79
2023/09/12 02:51:50;;;;;;;7.30;3.90;;;;;;;16.66;69.22;95064.56;5094123;28;20532;-79
2023/09/12 02:54:18;;;;;;;3.60;3.20;;;;;;;16.62;69.76;95068.50;5094101;28;20914;-78
2023/09/12 02:56:45;;;;;;;4.43;3.77;;;;;;;16.55;69.96;95067.50;5094073;28;20436;-79
2023/09/12 02:59:11;;;;;;;6.87;4.07;;;;;;;16.50;69.93;95069.81;5042379;28;20500;-78
2023/09/12 03:01:38;;;;;;;4.20;3.80;;;;;;;16.43;70.14;95060.81;5058291;28;20487;-79
2023/09/12 03:04:05;;;;;;;5.13;3.73;;;;;;;16.40;69.78;95054.03;5041764;28;20436;-78
2023/09/12 03:06:32;;;;;;;6.10;4.30;;;;;;;16.38;69.63;95060.47;5093571;28;20446;-78
2023/09/12 03:08:59;;;;;;;4.40;4.00;;;;;;;16.37;70.08;95064.13;5079374;28;20467;-78
2023/09/12 03:11:29;;;;;;;5.50;4.27;;;;;;;16.36;70.12;95065.94;5085775;28;20462;-79
2023/09/12 03:13:56;;;;;;;7.13;4.60;;;;;;;16.36;70.39;95065.13;5093939;28;20437;-79
2023/09/12 03:16:24;;;;;;;7.40;4.10;;;;;;;16.30;71.23;95068.41;5094063;28;20499;-78
2023/09/12 03:18:51;;;;;;;4.33;3.70;;;;;;;16.25;71.21;95057.47;5093700;28;20494;-79
2023/09/12 03:21:17;;;;;;;4.00;3.63;;;;;;;16.10;71.79;95057.25;5093389;28;20583;-78
2023/09/12 03:23:44;;;;;;;4.63;4.10;;;;;;;16.19;72.17;95058.94;5093789;28;20838;-78
2023/09/12 03:26:11;;;;;;;4.20;3.80;;;;;;;16.14;71.80;95068.34;5041262;28;20450;-78
2023/09/12 03:28:41;;;;;;;6.47;4.87;;;;;;;16.20;71.69;95075.66;5093424;28;20498;-78
2023/09/12 03:31:11;;;;;;;5.87;4.20;;;;;;;16.18;72.10;95067.84;5090756;28;20526;-78
2023/09/12 03:33:38;;;;;;;6.87;3.90;;;;;;;16.13;72.23;95075.44;5093517;28;20446;-78
2023/09/12 03:36:06;;;;;;;5.50;3.50;;;;;;;16.00;72.47;95067.97;5093515;28;20464;-78
2023/09/12 03:38:33;;;;;;;5.50;3.70;;;;;;;16.06;72.08;95072.63;5073176;28;20479;-78
2023/09/12 03:41:00;;;;;;;3.60;3.30;;;;;;;16.05;71.60;95070.13;5037950;28;20495;-79
2023/09/12 03:43:26;;;;;;;7.20;3.40;;;;;;;16.09;71.76;95072.28;5072845;28;20907;-78
2023/09/12 03:45:55;;;;;;;7.53;3.90;;;;;;;16.10;71.42;95068.66;5073262;28;20447;-78
2023/09/12 03:48:21;;;;;;;6.63;4.33;;;;;;;16.07;71.82;95079.56;5087809;28;20902;-78
2023/09/12 03:50:48;;;;;;;8.00;3.90;;;;;;;15.99;71.59;95082.19;5092142;28;20474;-78
2023/09/12 03:53:15;;;;;;;4.60;4.20;;;;;;;15.94;72.00;95084.47;5092324;28;20468;-78
2023/09/12 03:55:43;;;;;;;7.53;4.07;;;;;;;15.92;71.59;95085.63;5092455;28;20450;-79
2023/09/12 03:58:09;;;;;;;4.47;4.17;;;;;;;15.90;71.39;95085.78;5093024;28;20443;-78
2023/09/12 04:00:36;;;;;;;4.70;4.30;;;;;;;15.85;71.34;95085.41;5093115;28;20452;-78
2023/09/12 04:03:05;;;;;;;5.63;4.20;;;;;;;15.92;71.25;95086.47;5092852;28;20480;-78
2023/09/12 04:05:32;;;;;;;6.67;5.07;;;;;;;16.01;71.45;95084.69;5040051;28;20444;-78
2023/09/12 04:07:58;;;;;;;10.30;4.87;;;;;;;16.05;70.71;95084.19;5092280;28;20450;-78
2023/09/12 04:10:25;;;;;;;7.60;3.80;;;;;;;16.13;71.38;95090.50;5092152;28;20431;-78
2023/09/12 04:12:52;;;;;;;4.67;4.20;;;;;;;16.16;70.67;95079.59;5092285;28;20493;-78
2023/09/12 04:15:19;;;;;;;5.20;3.70;;;;;;;16.13;70.45;95075.44;5091421;28;20473;-78
2023/09/12 04:17:46;;;;;;;4.10;3.70;;;;;;;16.16;70.26;95087.53;5092103;28;20443;-78
2023/09/12 04:20:14;;;;;;;8.63;3.73;;;;;;;16.13;70.80;95086.03;5055333;28;20499;-79
2023/09/12 04:22:41;;;;;;;5.73;4.23;;;;;;;16.16;70.61;95090.19;5091457;28;20531;-79
2023/09/12 04:25:08;;;;;;;4.97;4.33;;;;;;;16.30;70.81;95079.84;5091448;28;20488;-79
2023/09/12 04:27:35;;;;;;;6.17;4.20;;;;;;;17.03;71.36;95082.66;5092390;28;20501;-77
2023/09/12 04:30:03;;;;;;;4.27;3.87;;;;;;;17.87;67.29;95085.94;5092622;28;20920;-77
2023/09/12 04:32:30;;;;;;;5.57;4.43;;;;;;;18.59;64.05;95084.00;5072057;28;20479;-77
2023/09/12 04:34:57;;;;;;;8.10;4.70;;;;;;;18.97;61.85;95079.63;5073105;28;20837;-78
2023/09/12 04:37:25;;;;;;;4.10;3.70;;;;;;;19.36;60.61;95087.47;5072945;28;20852;-77
2023/09/12 04:39:52;;;;;;;4.57;4.10;;;;;;;19.57;60.24;95089.50;5072815;28;20515;-77
2023/09/12 04:42:19;;;;;;;13.30;4.70;;;;;;;19.84;59.21;95088.09;5072507;28;20486;-77
2023/09/12 04:44:46;;;;;;;4.00;3.63;;;;;;;19.91;58.46;95093.50;5080195;28;20571;-78
2023/09/12 04:47:13;;;;;;;5.83;3.70;;;;;;;20.07;57.67;95096.00;5092830;28;20453;-76
2023/09/12 04:49:40;;;;;;;5.30;3.90;;;;;;;20.17;56.31;95093.06;5090229;28;20444;-78
2023/09/12 04:52:07;;;;;;;5.53;4.00;;;;;;;20.02;56.38;95095.75;5082832;28;20445;-80
2023/09/12 04:54:36;;;;;;;5.03;4.53;;;;;;;19.69;57.30;95092.56;5076398;28;20442;-80
2023/09/12 04:57:03;;;;;;;6.17;3.60;;;;;;;19.35;58.13;95095.66;5090684;28;20445;-78
2023/09/12 04:59:30;;;;;;;4.30;3.97;;;;;;;19.11;59.57;95097.50;5052900;28;20441;-81
2023/09/12 05:01:56;;;;;;;7.93;4.63;;;;;;;19.04;59.75;95093.88;5072417;28;20491;-80
2023/09/12 05:04:23;;;;;;;14.27;6.40;;;;;;;19.06;60.99;95091.03;5077380;28;20443;-80
2023/09/12 05:06:50;;;;;;;7.30;4.07;;;;;;;19.28;61.21;95092.06;5096180;28;20458;-80
2023/09/12 05:09:17;;;;;;;6.83;3.80;;;;;;;19.56;59.13;95100.34;5096306;28;20490;-78
2023/09/12 05:11:45;;;;;;;4.77;3.97;;;;;;;19.99;57.28;95096.09;5095275;28;20440;-79
2023/09/12 05:14:12;;;;;;;4.67;4.27;;;;;;;20.45;56.05;95101.25;5094979;28;20795;-78
2023/09/12 05:16:38;;;;;;;4.20;3.80;;;;;;;20.83;54.74;95091.28;5095595;28;20455;-79
2023/09/12 05:19:05;;;;;;;5.73;4.00;;;;;;;21.03;53.80;95103.81;5088281;28;20505;-77
2023/09/12 05:21:32;;;;;;;11.27;4.43;;;;;;;21.19;54.32;95097.41;5035589;28;21026;-76
2023/09/12 05:23:59;;;;;;;16.13;6.30;;;;;;;21.39;55.32;95102.94;5043185;28;20445;-78
2023/09/12 05:26:26;;;;;;;11.77;5.90;;;;;;;21.42;55.15;95105.28;5092972;28;20456;-77
2023/09/12 05:28:54;;;;;;;8.07;4.97;;;;;;;21.37;55.34;95114.84;5095276;28;20440;-77
2023/09/12 05:31:21;;;;;;;4.60;4.20;;;;;;;21.41;54.71;95092.13;5091926;28;20461;-77
2023/09/12 05:33:48;;;;;;;21.37;5.50;;;;;;;21.72;54.06;95107.78;5043147;28;20443;-77
2023/09/12 05:36:15;;;;;;;6.20;4.40;;;;;;;21.85;52.94;95105.19;5091306;28;20830;-77
2023/09/12 05:38:42;;;;;;;6.43;4.40;;;;;;;21.58;51.37;95104.16;5095499;28;20949;-79
2023/09/12 05:41:09;;;;;;;11.40;4.97;;;;;;;21.57;52.78;95114.00;5095415;28;20436;-77
2023/09/12 05:43:35;;;;;;;6.80;5.00;;;;;;;21.53;52.68;95111.94;5094715;28;20958;-77
2023/09/12 05:46:04;;;;;;;9.47;4.90;;;;;;;21.63;51.54;95117.75;5059700;28;20445;-79
2023/09/12 05:48:31;;;;;;;14.10;5.77;;;;;;;21.76;51.73;95112.53;5095200;28;20679;-79
2023/09/12 05:50:58;;;;;;;13.23;4.33;;;;;;;21.92;51.84;95111.41;5095274;28;20434;-77
2023/09/12 05:53:25;;;;;;;10.57;4.60;;;;;;;22.14;51.21;95109.53;5042393;28;20477;-77
2023/09/12 05:55:51;;;;;;;12.00;4.80;;;;;;;22.11;49.98;95112.63;5095089;28;20435;-77
2023/09/12 05:58:18;;;;;;;8.73;5.50;;;;;;;22.27;50.71;95112.31;5094626;28;20445;-77
2023/09/12 06:00:47;;;;;;;23.97;5.10;;;;;;;22.51;50.83;95101.13;5041988;28;20431;-77
2023/09/12 06:03:16;;;;;;;11.10;3.90;;;;;;;22.72;48.69;95112.75;5094140;28;20494;-79
2023/09/12 06:05:43;;;;;;;4.30;3.70;;;;;;;22.83;47.38;95105.00;5094577;28;20482;-79
2023/09/12 06:08:10;;;;;;;9.90;4.23;;;;;;;22.88;47.33;95106.25;5095098;28;20442;-79
2023/09/12 06:10:37;;;;;;;9.23;4.30;;;;;;;22.92;47.66;95108.34;5094455;28;20530;-79
2023/09/12 06:13:04;;;;;;;6.20;4.53;;;;;;;23.07;48.25;95114.34;5094505;28;20438;-79
2023/09/12 06:15:31;;;;;;;6.77;4.07;;;;;;;23.18;48.24;95113.75;5093339;28;20444;-77
2023/09/12 06:17:58;;;;;;;4.10;3.63;;;;;;;23.40;47.93;95110.91;5093880;28;20453;-78
2023/09/12 06:20:26;;;;;;;5.57;3.93;;;;;;;23.31;48.21;95112.97;5094340;28;20449;-78
2023/09/12 06:22:53;;;;;;;5.07;4.40;;;;;;;23.31;48.87;95118.31;5093987;28;20480;-78
2023/09/12 06:25:19;;;;;;;5.67;3.70;;;;;;;23.27;48.50;95118.94;5094048;28;20441;-78
2023/09/12 06:27:46;;;;;;;8.60;4.07;;;;;;;23.48;48.33;95119.59;5094189;28;20436;-78
2023/09/12 06:30:14;;;;;;;6.07;3.97;;;;;;;23.70;47.14;95127.47;5093910;28;20438;-78
2023/09/12 06:32:41;;;;;;;5.77;3.70;;;;;;;23.89;46.69;95123.97;5094021;28;20445;-79
2023/09/12 06:35:10;;;;;;;5.20;4.23;;;;;;;24.04;46.37;95123.78;5041870;28;20929;-78
2023/09/12 06:37:38;;;;;;;4.83;4.07;;;;;;;24.27;45.35;95132.19;5093959;28;20572;-78
2023/09/12 06:40:06;;;;;;;4.70;3.80;;;;;;;24.52;45.74;95124.31;5093741;28;20446;-79
2023/09/12 06:42:35;;;;;;;5.87;3.80;;;;;;;24.84;44.05;95119.06;5057595;28;20483;-78
2023/09/12 06:45:02;;;;;;;4.53;3.30;;;;;;;25.06;42.65;95128.50;5093562;28;20874;-77
2023/09/12 06:47:28;;;;;;;8.03;3.80;;;;;;;25.15;42.91;95124.53;5093450;28;20440;-79
2023/09/12 06:49:55;;;;;;;6.20;4.23;;;;;;;25.27;41.64;95130.88;5093437;28;20454;-79
2023/09/12 06:52:24;;;;;;;3.73;3.40;;;;;;;25.11;43.42;95130.53;5093328;28;20471;-79
2023/09/12 06:54:52;;;;;;;8.97;4.40;;;;;;;24.90;44.86;95131.66;5093458;28;20443;-79
2023/09/12 06:57:19;;;;;;;5.30;3.63;;;;;;;24.87;45.04;95127.53;5093382;28;20450;-79
2023/09/12 06:59:48;;;;;;;6.10;4.17;;;;;;;24.90;45.52;95131.66;5093745;28;20432;-79
2023/09/12 07:02:14;;;;;;;4.23;3.83;;;;;;;24.77;45.24;95135.19;5058438;28;20544;-78
2023/09/12 07:04:41;;;;;;;11.23;6.43;;;;;;;24.69;44.74;95133.56;5041030;28;20874;-78
2023/09/12 07:07:08;;;;;;;8.43;5.63;;;;;;;24.80;45.57;95133.94;5093244;28;20447;-78
2023/09/12 07:09:35;;;;;;;9.50;6.27;;;;;;;24.77;44.56;95131.69;5093081;28;20446;-78
2023/09/12 07:12:05;;;;;;;6.60;4.50;;;;;;;24.82;45.13;95127.31;5092943;28;20443;-78
2023/09/12 07:14:32;;;;;;;5.30;4.60;;;;;;;24.96;45.51;95128.13;5093094;28;20733;-78
2023/09/12 07:16:59;;;;;;;9.17;5.50;;;;;;;24.66;44.73;95134.00;5093170;28;20799;-78
2023/09/12 07:19:26;;;;;;;6.07;4.53;;;;;;;24.50;45.49;95136.31;5093244;28;20445;-79
2023/09/12 07:21:52;;;;;;;6.07;5.47;;;;;;;24.50;45.54;95142.50;5057408;28;20450;-79
2023/09/12 07:24:19;;;;;;;11.83;5.10;;;;;;;24.53;46.13;95134.03;5092846;28;20451;-78
2023/09/12 07:26:46;;;;;;;12.83;4.77;;;;;;;24.52;44.75;95137.75;5092618;28;20924;-78
2023/09/12 07:29:15;;;;;;;9.90;5.73;;;;;;;24.61;45.42;95139.19;5093034;28;20526;-79
2023/09/12 07:31:41;;;;;;;5.57;4.40;;;;;;;24.71;44.37;95128.81;5092817;28;20554;-78
2023/09/12 07:34:09;;;;;;;5.40;4.10;;;;;;;24.51;44.04;95132.59;5092481;28;20450;-78
2023/09/12 07:36:36;;;;;;;5.30;4.37;;;;;;;24.63;43.45;95129.06;5092811;28;20446;-78
2023/09/12 07:39:03;;;;;;;6.80;4.47;;;;;;;24.71;44.31;95133.38;5092506;28;20443;-79
2023/09/12 07:41:30;;;;;;;11.70;5.60;;;;;;;24.66;43.61;95131.31;5092581;28;20454;-79
2023/09/12 07:43:57;;;;;;;6.00;5.10;;;;;;;24.74;43.73;95134.81;5092631;28;20859;-78
2023/09/12 07:46:25;;;;;;;8.40;6.60;;;;;;;24.80;43.82;95128.56;5092419;28;20447;-78
2023/09/12 07:48:52;;;;;;;11.67;5.57;;;;;;;24.69;43.94;95133.56;5092501;28;20514;-79
2023/09/12 07:51:19;;;;;;;8.63;3.90;;;;;;;24.77;43.20;95126.31;5091873;28;20447;-78
2023/09/12 07:53:46;;;;;;;12.47;5.20;;;;;;;24.95;42.99;95131.84;5092326;28;20490;-78
2023/09/12 07:56:13;;;;;;;6.97;5.23;;;;;;;24.82;43.93;95121.97;5092075;28;20449;-78
2023/09/12 07:58:39;;;;;;;7.57;4.53;;;;;;;24.97;43.65;95125.22;5092461;28;20443;-78
2023/09/12 08:01:07;;;;;;;8.20;4.13;;;;;;;25.23;43.36;95118.94;5039850;28;20439;-79
2023/09/12 08:03:36;;;;;;;7.17;4.70;;;;;;;25.29;43.09;95117.22;5057034;28;20525;-78
2023/09/12 08:06:03;;;;;;;6.37;4.10;;;;;;;25.46;40.48;95122.94;5092036;28;20450;-78
2023/09/12 08:08:30;;;;;;;13.20;4.90;;;;;;;25.66;40.64;95123.59;5092181;28;20451;-78
2023/09/12 08:10:57;;;;;;;8.00;4.70;;;;;;;25.88;40.06;95119.53;5092200;28;20443;-78
2023/09/12 08:13:27;;;;;;;8.23;4.60;;;;;;;25.94;39.58;95118.66;5092412;28;20443;-78
2023/09/12 08:15:54;;;;;;;7.00;4.20;;;;;;;25.98;38.82;95126.28;5092103;28;20942;-78
2023/09/12 08:18:21;;;;;;;11.77;4.33;;;;;;;25.71;39.02;95115.75;5091824;28;20451;-79
2023/09/12 08:20:49;;;;;;;11.40;4.60;;;;;;;25.92;39.00;95117.25;5091625;28;20436;-78
2023/09/12 08:23:16;;;;;;;10.10;4.70;;;;;;;26.06;39.68;95124.16;5056270;28;20491;-78
2023/09/12 08:25:42;;;;;;;16.00;5.50;;;;;;;26.31;39.70;95126.00;5092361;28;20443;-78
2023/09/12 08:28:09;;;;;;;20.67;5.50;;;;;;;26.36;38.40;95121.66;5092121;28;20796;-78
2023/09/12 08:30:36;;;;;;;9.93;4.93;;;;;;;26.49;38.86;95121.50;5092223;28;20444;-78
2023/09/12 08:33:03;;;;;;;7.63;4.60;;;;;;;26.55;38.06;95125.97;5091674;28;20452;-78
2023/09/12 08:35:30;;;;;;;8.07;5.10;;;;;;;26.40;37.97;95122.84;5007279;28;20507;-78
2023/09/12 08:37:58;;;;;;;7.10;4.60;;;;;;;26.24;38.06;95109.91;5093827;28;20817;-79
2023/09/12 08:40:25;;;;;;;10.73;4.87;;;;;;;25.92;37.84;95111.84;5096096;28;20462;-78
2023/09/12 08:42:53;;;;;;;9.27;4.97;;;;;;;26.14;38.14;95101.53;5096341;28;20490;-78
2023/09/12 08:45:20;;;;;;;9.97;6.53;;;;;;;25.73;38.16;95102.91;5095984;28;20440;-78
2023/09/12 08:47:51;;;;;;;10.00;4.70;;;;;;;26.04;38.88;95099.38;5060292;28;20435;-78
2023/09/12 08:50:18;;;;;;;10.20;4.87;;;;;;;26.25;38.60;95090.84;5096093;28;20436;-78
2023/09/12 08:52:46;;;;;;;9.00;4.60;;;;;;;26.19;37.03;95096.31;5095968;28;20480;-78
2023/09/12 08:55:14;;;;;;;7.50;4.37;;;;;;;26.23;38.84;95097.50;5095750;28;20451;-78
2023/09/12 08:57:42;;;;;;;10.67;3.67;;;;;;;26.47;38.60;95093.16;5060152;28;20432;-78
2023/09/12 09:00:12;;;;;;;9.87;5.03;;;;;;;26.65;37.80;95097.75;5095656;28;20444;-78
2023/09/12 09:02:40;;;;;;;12.43;4.90;;;;;;;26.74;37.60;95099.06;5095735;28;20483;-78
2023/09/12 09:05:08;;;;;;;5.70;4.20;;;;;;;26.86;36.10;95091.88;5095731;28;21003;-78
2023/09/12 09:07:37;;;;;;;11.10;3.73;;;;;;;27.00;36.01;95101.47;5096525;28;20521;-79
2023/09/12 09:10:06;;;;;;;5.63;4.93;;;;;;;27.16;35.39;95095.44;5096045;28;20490;-79
2023/09/12 09:12:35;;;;;;;15.43;4.83;;;;;;;27.30;35.95;95100.69;5095409;28;20778;-78
2023/09/12 09:15:23;;;;;;;5.87;3.87;;;;;;;27.36;35.25;95089.78;5095307;28;20447;-78
2023/09/12 09:17:51;;;;;;;22.07;4.57;;;;;;;27.19;35.51;95090.69;5095483;28;20450;-78
2023/09/12 09:20:29;;;;;;;6.47;3.80;;;;;;;27.19;35.37;95096.91;5095571;28;20435;-79
2023/09/12 09:23:00;;;;;;;7.60;4.40;;;;;;;27.12;35.77;95096.97;5095372;28;20507;-79
2023/09/12 09:25:27;;;;;;;10.23;4.23;;;;;;;27.20;34.83;95090.47;5095164;28;20447;-78
2023/09/12 09:27:55;;;;;;;11.07;4.00;;;;;;;27.21;34.80;95088.59;5095680;28;20444;-79
2023/09/12 09:30:43;;;;;;;5.93;3.50;;;;;;;27.15;35.31;95087.59;5095689;28;20443;-78
2023/09/12 09:33:11;;;;;;;5.40;4.30;;;;;;;27.05;34.21;95080.06;5095187;28;20929;-79
2023/09/12 09:35:39;;;;;;;11.63;3.40;;;;;;;26.90;34.70;95070.72;5095215;28;20453;-78
2023/09/12 09:38:07;;;;;;;7.73;4.13;;;;;;;26.89;34.74;95079.81;5095296;28;20439;-78
2023/09/12 09:40:35;;;;;;;6.07;3.90;;;;;;;26.56;34.68;95075.66;5094839;28;20803;-78
2023/09/12 09:43:05;;;;;;;7.93;3.97;;;;;;;26.63;35.12;95071.03;5095270;28;20575;-79
2023/09/12 09:45:32;;;;;;;7.47;4.10;;;;;;;26.81;35.57;95070.19;5095363;28;20478;-79
2023/09/12 09:48:00;;;;;;;7.63;3.77;;;;;;;26.97;34.47;95066.88;5094796;28;20485;-79
2023/09/12 09:50:28;;;;;;;5.83;3.10;;;;;;;27.04;34.98;95062.25;5095203;28;20448;-79
2023/09/12 09:52:57;;;;;;;4.00;3.60;;;;;;;27.07;34.73;95061.81;5094750;28;20548;-79
2023/09/12 09:55:24;;;;;;;8.07;3.73;;;;;;;27.15;34.63;95063.34;5094822;28;20943;-79
2023/09/12 09:57:53;;;;;;;13.07;3.70;;;;;;;27.31;34.25;95062.72;5095016;28;20458;-79
2023/09/12 10:00:23;;;;;;;7.20;3.57;;;;;;;27.36;33.32;95059.31;5094478;28;20807;-79
2023/09/12 10:02:52;;;;;;;4.53;3.47;;;;;;;27.46;34.03;95055.00;5094804;28;20530;-79
2023/09/12 10:05:20;;;;;;;8.67;4.30;;;;;;;27.43;34.92;95058.16;5094767;28;20509;-79
2023/09/12 10:07:50;;;;;;;10.70;3.70;;;;;;;27.40;33.77;95057.81;5094667;28;20448;-79
2023/09/12 10:10:18;;;;;;;5.73;4.10;;;;;;;27.45;34.21;95049.84;5094497;28;20443;-78
2023/09/12 10:12:50;;;;;;;3.80;3.03;;;;;;;27.39;34.58;95051.59;5094249;28;20448;-79
2023/09/12 10:15:20;;;;;;;5.20;3.50;;;;;;;27.32;34.79;95041.97;5094300;28;20444;-79
2023/09/12 10:17:56;;;;;;;4.40;3.90;;;;;;;27.30;36.26;95033.31;5094218;28;20454;-78
2023/09/12 10:20:26;;;;;;;3.40;3.10;;;;;;;27.22;36.22;95047.94;5094269;28;20470;-79
2023/09/12 10:23:03;;;;;;;3.67;3.37;;;;;;;27.15;35.97;95041.78;5094124;28;20440;-79
2023/09/12 10:25:30;;;;;;;4.13;3.73;;;;;;;27.05;35.95;95033.44;5094257;28;20443;-79
2023/09/12 10:27:57;;;;;;;6.27;3.43;;;;;;;26.85;36.71;95030.97;5042180;28;20851;-79
2023/09/12 10:30:26;;;;;;;6.00;3.60;;;;;;;26.83;36.70;95023.13;5042183;28;20559;-78
2023/09/12 10:32:55;;;;;;;9.43;3.90;;;;;;;26.97;36.31;95028.34;5094108;28;20527;-79
2023/09/12 10:35:22;;;;;;;7.57;3.60;;;;;;;27.06;36.71;95029.72;5094403;28;20452;-79
2023/09/12 10:37:52;;;;;;;10.63;3.77;;;;;;;27.06;36.12;95024.31;5058227;28;20432;-79
2023/09/12 10:40:20;;;;;;;8.60;3.73;;;;;;;27.12;36.12;95021.53;5094129;28;20443;-79
2023/09/12 10:42:49;;;;;;;8.53;3.50;;;;;;;27.19;36.71;95018.75;5093705;28;20447;-79
2023/09/12 10:45:16;;;;;;;5.70;3.40;;;;;;;27.25;36.61;95020.53;5093745;28;20455;-79
2023/09/12 10:47:44;;;;;;;14.97;3.57;;;;;;;27.36;37.35;95016.19;5093736;28;20440;-78
2023/09/12 10:50:13;;;;;;;8.10;4.10;;;;;;;27.52;36.72;95003.94;5093778;28;20450;-78
2023/09/12 10:52:40;;;;;;;4.17;3.77;;;;;;;27.61;36.81;94997.16;5093570;28;20479;-79
2023/09/12 10:55:08;;;;;;;6.03;3.83;;;;;;;27.60;35.56;94999.03;5093871;28;20814;-79
2023/09/12 10:57:35;;;;;;;4.00;3.40;;;;;;;27.45;35.39;95002.16;5093715;28;20440;-79
2023/09/12 11:00:14;;;;;;;8.53;4.27;;;;;;;27.55;35.84;94992.69;5093008;28;20464;-79
2023/09/12 11:02:42;;;;;;;4.10;3.47;;;;;;;27.61;36.91;94986.34;5093242;28;20435;-79
2023/09/12 11:05:52;;;;;;;9.57;3.93;;;;;;;27.69;35.72;94992.25;5093145;28;20537;-79
2023/09/12 11:08:18;;;;;;;5.57;4.00;;;;;;;27.74;36.28;94980.75;5093576;28;20443;-79
2023/09/12 11:10:45;;;;;;;6.80;4.73;;;;;;;27.47;35.55;94975.00;5093402;28;20436;-79
2023/09/12 11:13:18;;;;;;;7.00;3.37;;;;;;;27.54;35.04;94975.69;5057609;28;20466;-79
2023/09/12 11:16:13;;;;;;;5.87;4.10;;;;;;;27.53;35.15;94974.06;5093090;28;20995;-79
2023/09/12 11:19:23;;;;;;;7.17;4.40;;;;;;;27.50;36.34;94982.59;5093209;28;20472;-79
2023/09/12 11:21:53;;;;;;;8.27;3.60;;;;;;;27.62;35.64;94972.66;5030621;28;20794;-79
2023/09/12 11:24:21;;;;;;;7.93;3.97;;;;;;;27.73;37.57;94969.16;5030540;28;20475;-78
2023/09/12 11:26:56;;;;;;;4.50;3.73;;;;;;;27.83;36.24;94962.38;5030549;28;20438;-79
2023/09/12 11:29:25;;;;;;;4.03;3.37;;;;;;;27.86;35.35;94967.28;5030659;28;20446;-79
2023/09/12 11:31:57;;;;;;;5.87;3.17;;;;;;;27.81;35.24;94959.91;4998102;28;20454;-79
2023/09/12 11:34:27;;;;;;;3.80;3.50;;;;;;;27.91;35.36;94970.09;4997998;28;20447;-79
2023/09/12 11:36:59;;;;;;;3.47;3.17;;;;;;;27.95;34.18;94960.47;5030269;28;20481;-79